EDV12 KSFO-KOAK
Flight info
| Callsign | EDV12 |
|---|---|
| Flight time | 0h -13m |
| Altitude | 3000 |
| Route | TRUKN2 TRUKN |
| Aircraft | CRJ9/M-SDFGIRWY/S |
Departure
| Time | 2026-04-30 20:44 |
|---|---|
| Airport | San Francisco International Airport (KSFO) |
Arrival
| Time | 2026-04-30 20:31 |
|---|---|
| Airport | San Francisco Bay Oakland International Airport (KOAK) |
| Time | Latitude | Longitude | Altitude | Speed | Heading |
|---|---|---|---|---|---|
| 2026-04-30 20:30 | 37.61673 | -122.38047 | 14 ft | 0 kts | 297° |
| 2026-04-30 20:37 | 37.61670 | -122.38040 | 15 ft | 2 kts | 299° |
| 2026-04-30 20:37 | 37.61659 | -122.38020 | 14 ft | 3 kts | 312° |
| 2026-04-30 20:37 | 37.61644 | -122.38003 | 13 ft | 3 kts | 324° |
| 2026-04-30 20:38 | 37.61629 | -122.37991 | 13 ft | 2 kts | 330° |
| 2026-04-30 20:38 | 37.61623 | -122.37987 | 13 ft | 0 kts | 330° |
| 2026-04-30 20:40 | 37.61636 | -122.37995 | 13 ft | 0 kts | 335° |
| 2026-04-30 20:40 | 37.61640 | -122.37996 | 13 ft | 0 kts | 353° |
| 2026-04-30 20:41 | 37.61721 | -122.37917 | 16 ft | 23 kts | 46° |
| 2026-04-30 20:41 | 37.61794 | -122.37766 | 18 ft | 17 kts | 116° |
| 2026-04-30 20:41 | 37.61755 | -122.37630 | 19 ft | 16 kts | 109° |
| 2026-04-30 20:41 | 37.61713 | -122.37496 | 18 ft | 17 kts | 116° |
| 2026-04-30 20:42 | 37.61660 | -122.37365 | 20 ft | 17 kts | 118° |
| 2026-04-30 20:42 | 37.61602 | -122.37228 | 23 ft | 19 kts | 118° |
| 2026-04-30 20:42 | 37.61456 | -122.36884 | 19 ft | 26 kts | 118° |
| 2026-04-30 20:43 | 37.61417 | -122.36670 | 17 ft | 26 kts | 73° |
| 2026-04-30 20:43 | 37.61507 | -122.36590 | 15 ft | 12 kts | 334° |
| 2026-04-30 20:43 | 37.61535 | -122.36651 | 17 ft | 11 kts | 272° |
| 2026-04-30 20:44 | 37.61888 | -122.37546 | 17 ft | 129 kts | 298° |
| 2026-04-30 20:44 | 37.62416 | -122.38662 | 492 ft | 157 kts | 300° |
| 2026-04-30 20:44 | 37.63450 | -122.40688 | 2498 ft | 160 kts | 304° |